Time;durP1;ratioP1;P1;durP2;ratioP2;P2;SDS_P1;SDS_P2;PMS_P1;PMS_P2;Temp;Humidity;BMP_temperature;BMP_pressure;BME280_temperature;BME280_humidity;BME280_pressure;Samples;Min_cycle;Max_cycle;Signal;HPM_P1;HPM_P2
2021/12/11 00:01:40;;;;;;;29.83;13.27;;;;;;;;;;5027504;28;20032;-75
2021/12/11 00:04:08;;;;;;;25.70;13.35;;;;;;;;;;5048229;28;20067;-75
2021/12/11 00:06:38;;;;;;;30.17;13.73;;;;;;;;;;5029504;28;20029;-75
2021/12/11 00:09:10;;;;;;;25.55;12.93;;;;;;;;;;5043637;28;20044;-74
2021/12/11 00:11:40;;;;;;;27.80;14.05;;;;;;;;;;5034645;28;20064;-74
2021/12/11 00:14:09;;;;;;;29.60;14.88;;;;;;;;;;5043307;28;20475;-74
2021/12/11 00:16:36;;;;;;;24.15;14.05;;;;;;;;;;5055789;28;20068;-74
2021/12/11 00:19:07;;;;;;;23.88;14.13;;;;;;;;;;5042928;28;20032;-74
2021/12/11 00:21:33;;;;;;;29.30;16.35;;;;;;;;;;5036732;28;20641;-74
2021/12/11 00:24:16;;;;;;;27.17;15.25;;;;;;;;;;5044253;28;20040;-74
2021/12/11 00:26:50;;;;;;;26.13;14.13;;;;;;;;;;5024511;28;20026;-74
2021/12/11 00:29:20;;;;;;;27.83;14.95;;;;;;;;;;5040931;28;20025;-75
2021/12/11 00:31:48;;;;;;;29.38;15.38;;;;;;;;;;5039569;28;20041;-75
2021/12/11 00:34:16;;;;;;;29.98;15.88;;;;;;;;;;5049346;28;20041;-74
2021/12/11 00:36:49;;;;;;;32.05;16.30;;;;;;;;;;5037275;28;20037;-74
2021/12/11 00:39:16;;;;;;;30.75;16.55;;;;;;;;;;5046312;28;20026;-74
2021/12/11 00:41:52;;;;;;;29.50;15.57;;;;;;;;;;5042125;28;20052;-74
2021/12/11 00:44:18;;;;;;;39.28;23.77;;;;;;;;;;5045823;28;20111;-75
2021/12/11 00:46:44;;;;;;;31.27;17.35;;;;;;;;;;5026936;28;20109;-75
2021/12/11 00:49:12;;;;;;;28.65;16.27;;;;;;;;;;5047652;28;20079;-75
2021/12/11 00:51:38;;;;;;;27.15;16.63;;;;;;;;;;5051097;28;20107;-75
2021/12/11 00:54:05;;;;;;;33.83;18.40;;;;;;;;;;5040011;28;20041;-75
2021/12/11 00:56:38;;;;;;;31.33;16.23;;;;;;;;;;5030390;28;20128;-75
2021/12/11 00:59:08;;;;;;;33.53;18.58;;;;;;;;;;5044369;28;20043;-75
2021/12/11 01:01:54;;;;;;;32.97;18.23;;;;;;;;;;5042224;28;20025;-75
2021/12/11 01:04:28;;;;;;;29.90;15.95;;;;;;;;;;5044356;28;20415;-75
2021/12/11 01:06:57;;;;;;;29.33;17.50;;;;;;;;;;5036540;28;20037;-75
2021/12/11 01:09:28;;;;;;;29.08;16.75;;;;;;;;;;5030880;28;20029;-75
2021/12/11 01:12:20;;;;;;;27.42;14.80;;;;;;;;;;5045236;28;20394;-76
2021/12/11 01:14:53;;;;;;;29.02;16.40;;;;;;;;;;5041486;28;20092;-75
2021/12/11 01:17:21;;;;;;;34.13;16.85;;;;;;;;;;5041868;28;20040;-75
2021/12/11 01:19:51;;;;;;;28.45;15.25;;;;;;;;;;5060234;28;20049;-75
2021/12/11 01:22:35;;;;;;;26.27;14.38;;;;;;;;;;5044559;28;20024;-74
2021/12/11 01:25:16;;;;;;;23.65;13.63;;;;;;;;;;5048554;28;20399;-75
2021/12/11 01:27:44;;;;;;;26.45;13.30;;;;;;;;;;5046375;28;20032;-74
2021/12/11 01:30:13;;;;;;;24.88;12.60;;;;;;;;;;5042185;28;20392;-75
2021/12/11 01:32:39;;;;;;;22.10;13.65;;;;;;;;;;5051726;28;20426;-75
2021/12/11 01:35:08;;;;;;;24.33;12.80;;;;;;;;;;5045136;28;20033;-75
2021/12/11 01:37:35;;;;;;;22.63;12.98;;;;;;;;;;5035403;28;20037;-75
2021/12/11 01:40:03;;;;;;;20.63;11.30;;;;;;;;;;5041963;28;20086;-75
2021/12/11 01:42:31;;;;;;;23.52;13.20;;;;;;;;;;5034661;28;20045;-75
2021/12/11 01:44:59;;;;;;;24.58;12.13;;;;;;;;;;5045673;28;20031;-74
2021/12/11 01:47:32;;;;;;;24.55;12.55;;;;;;;;;;5043923;28;20033;-74
2021/12/11 01:50:06;;;;;;;26.02;13.27;;;;;;;;;;5047305;28;20040;-75
2021/12/11 01:52:38;;;;;;;16.00;11.23;;;;;;;;;;5039770;28;20025;-74
2021/12/11 01:55:13;;;;;;;23.97;13.77;;;;;;;;;;5049600;28;20075;-75
2021/12/11 01:57:39;;;;;;;20.42;13.10;;;;;;;;;;5041217;28;20064;-75
2021/12/11 02:00:16;;;;;;;24.58;12.60;;;;;;;;;;5046306;28;20029;-74
2021/12/11 02:02:45;;;;;;;26.40;14.05;;;;;;;;;;5041473;28;20500;-75
2021/12/11 02:05:12;;;;;;;30.77;13.30;;;;;;;;;;5035770;28;20472;-75
2021/12/11 02:07:41;;;;;;;23.30;13.15;;;;;;;;;;5046632;28;20029;-75
2021/12/11 02:10:13;;;;;;;24.52;14.27;;;;;;;;;;5029295;28;20490;-75
2021/12/11 02:12:43;;;;;;;27.95;14.88;;;;;;;;;;5048872;28;20485;-75
2021/12/11 02:15:12;;;;;;;28.98;15.65;;;;;;;;;;5042609;28;20490;-76
2021/12/11 02:17:44;;;;;;;21.70;14.13;;;;;;;;;;5037895;28;20037;-75
2021/12/11 02:20:13;;;;;;;24.45;14.00;;;;;;;;;;5044575;28;20041;-75
2021/12/11 02:22:42;;;;;;;20.80;12.65;;;;;;;;;;5038789;28;20024;-75
2021/12/11 02:25:10;;;;;;;28.15;14.60;;;;;;;;;;5050617;28;20040;-75
2021/12/11 02:27:41;;;;;;;22.63;13.07;;;;;;;;;;5044644;28;20053;-74
2021/12/11 02:30:23;;;;;;;25.05;13.25;;;;;;;;;;5048175;28;20394;-75
2021/12/11 02:33:01;;;;;;;22.38;12.75;;;;;;;;;;5043850;28;20028;-74
2021/12/11 02:35:34;;;;;;;27.33;13.48;;;;;;;;;;5046635;28;20025;-75
2021/12/11 02:38:10;;;;;;;29.90;13.98;;;;;;;;;;5041407;28;20074;-75
2021/12/11 02:40:39;;;;;;;22.85;12.32;;;;;;;;;;5038111;28;20032;-73
2021/12/11 02:43:40;;;;;;;22.55;13.23;;;;;;;;;;5044672;28;20033;-74
2021/12/11 02:46:22;;;;;;;24.30;13.25;;;;;;;;;;4964057;28;20521;-75
2021/12/11 02:48:53;;;;;;;23.70;12.57;;;;;;;;;;5040241;28;20037;-75
2021/12/11 02:51:25;;;;;;;23.20;13.07;;;;;;;;;;5044193;28;20119;-76
2021/12/11 02:53:53;;;;;;;23.90;13.68;;;;;;;;;;5044885;28;20383;-75
2021/12/11 02:56:25;;;;;;;22.58;13.15;;;;;;;;;;5044959;28;20064;-76
2021/12/11 02:58:56;;;;;;;21.85;12.63;;;;;;;;;;5034758;28;20046;-74
2021/12/11 03:01:33;;;;;;;25.70;13.07;;;;;;;;;;5025021;28;20403;-74
2021/12/11 03:04:12;;;;;;;30.38;13.70;;;;;;;;;;5039104;28;20029;-74
2021/12/11 03:06:43;;;;;;;21.38;12.68;;;;;;;;;;5048788;28;20052;-75
2021/12/11 03:09:10;;;;;;;26.63;12.25;;;;;;;;;;5041918;28;20023;-75
2021/12/11 03:11:36;;;;;;;21.13;12.43;;;;;;;;;;5051620;28;20384;-75
2021/12/11 03:14:04;;;;;;;24.55;12.98;;;;;;;;;;5046246;28;20036;-75
2021/12/11 03:16:33;;;;;;;22.40;12.45;;;;;;;;;;5031532;28;20025;-75
2021/12/11 03:19:00;;;;;;;26.88;12.85;;;;;;;;;;5063834;28;20044;-75
2021/12/11 03:21:26;;;;;;;24.50;13.43;;;;;;;;;;5047451;28;20130;-75
2021/12/11 03:23:53;;;;;;;21.38;12.70;;;;;;;;;;5056829;28;20105;-75
2021/12/11 03:26:19;;;;;;;21.15;12.77;;;;;;;;;;5035636;28;20029;-75
2021/12/11 03:28:45;;;;;;;29.23;13.55;;;;;;;;;;5053515;28;20078;-75
2021/12/11 03:31:12;;;;;;;23.10;10.85;;;;;;;;;;5045819;28;20048;-75
2021/12/11 03:33:42;;;;;;;23.00;12.52;;;;;;;;;;5054274;28;20029;-76
2021/12/11 03:36:10;;;;;;;22.85;11.65;;;;;;;;;;5046509;28;20537;-75
2021/12/11 03:38:36;;;;;;;24.13;11.93;;;;;;;;;;5039477;28;20022;-75
2021/12/11 03:41:03;;;;;;;19.73;11.00;;;;;;;;;;5044584;28;20065;-75
2021/12/11 03:43:30;;;;;;;20.92;12.15;;;;;;;;;;5041970;28;20033;-75
2021/12/11 03:45:57;;;;;;;21.58;11.95;;;;;;;;;;5050822;28;20040;-75
2021/12/11 03:48:31;;;;;;;19.38;11.00;;;;;;;;;;5023639;28;20033;-76
2021/12/11 03:50:59;;;;;;;22.95;11.98;;;;;;;;;;5059450;28;20039;-75
2021/12/11 03:53:25;;;;;;;23.75;12.48;;;;;;;;;;5043912;28;20033;-75
2021/12/11 03:55:54;;;;;;;21.05;11.68;;;;;;;;;;5056648;28;20092;-75
2021/12/11 03:58:20;;;;;;;23.83;12.98;;;;;;;;;;5042532;28;20068;-75
2021/12/11 04:00:59;;;;;;;24.30;12.73;;;;;;;;;;5026328;28;20096;-74
2021/12/11 04:03:28;;;;;;;27.38;12.20;;;;;;;;;;5045197;28;20471;-74
2021/12/11 04:05:54;;;;;;;20.77;12.55;;;;;;;;;;5037635;28;20029;-75
2021/12/11 04:08:23;;;;;;;22.10;12.65;;;;;;;;;;5052674;28;20025;-74
2021/12/11 04:10:49;;;;;;;23.98;12.85;;;;;;;;;;5045388;28;20080;-74
2021/12/11 04:13:15;;;;;;;20.08;12.23;;;;;;;;;;5041376;28;20075;-74
2021/12/11 04:15:43;;;;;;;26.38;13.20;;;;;;;;;;5048113;28;20107;-74
2021/12/11 04:18:09;;;;;;;20.67;12.57;;;;;;;;;;5053592;28;20032;-75
2021/12/11 04:20:39;;;;;;;21.88;12.82;;;;;;;;;;5042554;28;20033;-75
2021/12/11 04:23:07;;;;;;;26.17;13.20;;;;;;;;;;5049970;28;20134;-75
2021/12/11 04:25:33;;;;;;;27.00;14.30;;;;;;;;;;5043657;28;20041;-75
2021/12/11 04:27:59;;;;;;;27.50;15.18;;;;;;;;;;5045764;28;20120;-75
2021/12/11 04:30:26;;;;;;;23.27;13.50;;;;;;;;;;5049102;28;20045;-75
2021/12/11 04:32:53;;;;;;;26.38;13.55;;;;;;;;;;5045701;28;20075;-75
2021/12/11 04:35:21;;;;;;;26.88;13.40;;;;;;;;;;5050126;28;20079;-75
2021/12/11 04:37:47;;;;;;;24.20;13.77;;;;;;;;;;5044857;28;20033;-75
2021/12/11 04:40:22;;;;;;;26.48;13.48;;;;;;;;;;5048947;28;20387;-76
2021/12/11 04:43:03;;;;;;;27.23;14.15;;;;;;;;;;5044990;28;20032;-75
2021/12/11 04:45:36;;;;;;;27.67;13.75;;;;;;;;;;5046964;28;20021;-75
2021/12/11 04:48:45;;;;;;;24.60;13.25;;;;;;;;;;5061217;28;20111;-75
2021/12/11 04:51:03;;;;;;;28.05;14.70;;;;;;;;;;5037089;28;20048;-75
2021/12/11 05:01:24;;;;;;;32.05;14.68;;;;;;;;;;5041748;28;20056;-74
2021/12/11 05:09:22;;;;;;;24.17;13.35;;;;;;;;;;5045921;28;20043;-74
2021/12/11 05:12:09;;;;;;;23.67;13.45;;;;;;;;;;5061290;28;20033;-74
2021/12/11 05:14:36;;;;;;;26.35;14.02;;;;;;;;;;5044687;28;20045;-75
2021/12/11 05:17:03;;;;;;;28.08;14.43;;;;;;;;;;5043043;28;20037;-74
2021/12/11 05:19:30;;;;;;;26.75;13.57;;;;;;;;;;5056451;28;20048;-74
2021/12/11 05:21:56;;;;;;;24.95;13.82;;;;;;;;;;5042172;28;20121;-75
2021/12/11 05:24:22;;;;;;;25.15;15.23;;;;;;;;;;5054291;28;20024;-75
2021/12/11 05:26:48;;;;;;;29.38;13.52;;;;;;;;;;5043196;28;20075;-75
2021/12/11 05:29:15;;;;;;;26.83;14.32;;;;;;;;;;5047197;28;20076;-75
2021/12/11 05:31:41;;;;;;;26.23;14.38;;;;;;;;;;5045157;28;20065;-75
2021/12/11 05:34:07;;;;;;;25.58;13.45;;;;;;;;;;5047785;28;20368;-75
2021/12/11 05:36:35;;;;;;;26.60;14.68;;;;;;;;;;5034923;28;20034;-75
2021/12/11 05:39:03;;;;;;;22.25;13.88;;;;;;;;;;5039064;28;20078;-75
2021/12/11 05:41:30;;;;;;;27.00;15.25;;;;;;;;;;5046064;28;20061;-74
2021/12/11 05:43:56;;;;;;;25.83;14.07;;;;;;;;;;5043354;28;20048;-74
2021/12/11 05:46:22;;;;;;;24.60;13.88;;;;;;;;;;5041970;28;20033;-75
2021/12/11 05:48:49;;;;;;;23.85;13.90;;;;;;;;;;5040871;28;20025;-77
2021/12/11 05:51:19;;;;;;;29.48;14.57;;;;;;;;;;5051490;28;20082;-76
2021/12/11 05:53:46;;;;;;;24.33;14.75;;;;;;;;;;5038384;28;20043;-76
2021/12/11 05:56:13;;;;;;;26.85;14.35;;;;;;;;;;5043940;28;20083;-76
2021/12/11 06:01:20;;;;;;;31.58;15.80;;;;;;;;;;5038187;28;20116;-77
2021/12/11 06:03:46;;;;;;;38.17;19.92;;;;;;;;;;5045747;28;20029;-76
2021/12/11 06:06:12;;;;;;;29.15;15.48;;;;;;;;;;5038524;28;20036;-76
2021/12/11 06:08:39;;;;;;;25.75;14.52;;;;;;;;;;5034766;28;20033;-77
2021/12/11 06:11:05;;;;;;;30.38;15.75;;;;;;;;;;5044054;28;20052;-75
2021/12/11 06:13:31;;;;;;;28.15;14.93;;;;;;;;;;5034242;28;20037;-76
2021/12/11 06:15:59;;;;;;;22.83;14.43;;;;;;;;;;5034463;28;20479;-76
2021/12/11 06:18:25;;;;;;;25.45;14.35;;;;;;;;;;5035234;28;20025;-76
2021/12/11 06:20:51;;;;;;;28.35;14.30;;;;;;;;;;5022618;28;20029;-75
2021/12/11 06:23:18;;;;;;;26.83;15.65;;;;;;;;;;5040521;28;20523;-75
2021/12/11 06:25:46;;;;;;;30.23;14.18;;;;;;;;;;5049265;28;20029;-75
2021/12/11 06:28:12;;;;;;;26.10;14.77;;;;;;;;;;5038687;28;20034;-75
2021/12/11 06:30:39;;;;;;;25.98;14.07;;;;;;;;;;5038249;28;20680;-75
2021/12/11 06:33:05;;;;;;;24.35;14.15;;;;;;;;;;5033823;28;20033;-75
2021/12/11 06:35:36;;;;;;;25.95;14.98;;;;;;;;;;5036077;28;20403;-76
2021/12/11 06:38:04;;;;;;;28.88;13.63;;;;;;;;;;5041593;28;20017;-75
2021/12/11 06:40:30;;;;;;;25.90;13.45;;;;;;;;;;5039476;28;20099;-75
2021/12/11 06:42:57;;;;;;;23.98;13.13;;;;;;;;;;5040839;28;20029;-75
2021/12/11 06:45:24;;;;;;;26.83;15.25;;;;;;;;;;5023377;28;20185;-76
2021/12/11 06:47:50;;;;;;;29.67;15.43;;;;;;;;;;5048211;28;20037;-76
2021/12/11 06:50:18;;;;;;;31.23;16.73;;;;;;;;;;5051438;28;20122;-77
2021/12/11 06:52:45;;;;;;;35.90;15.85;;;;;;;;;;5046704;28;20034;-76
2021/12/11 06:55:11;;;;;;;31.13;15.95;;;;;;;;;;5028395;28;20471;-75
2021/12/11 06:57:37;;;;;;;39.38;20.55;;;;;;;;;;5051996;28;20059;-76
2021/12/11 07:00:05;;;;;;;50.53;21.08;;;;;;;;;;5044885;28;20072;-76
2021/12/11 07:02:31;;;;;;;35.03;18.02;;;;;;;;;;5055926;28;20091;-75
2021/12/11 07:04:57;;;;;;;33.35;16.92;;;;;;;;;;5047417;28;20040;-75
2021/12/11 07:07:27;;;;;;;82.68;28.88;;;;;;;;;;5053939;28;20029;-76
2021/12/11 07:09:54;;;;;;;194.90;62.92;;;;;;;;;;5029618;28;20037;-75
2021/12/11 07:12:21;;;;;;;152.77;54.17;;;;;;;;;;5037884;28;20030;-75
2021/12/11 07:14:47;;;;;;;137.13;45.50;;;;;;;;;;5046883;28;20037;-75
2021/12/11 07:17:14;;;;;;;48.03;22.58;;;;;;;;;;5048474;28;20074;-76
2021/12/11 07:19:40;;;;;;;43.17;20.52;;;;;;;;;;5045419;28;20057;-76
2021/12/11 07:22:06;;;;;;;46.53;20.50;;;;;;;;;;5036095;28;20376;-76
2021/12/11 07:24:35;;;;;;;97.80;39.00;;;;;;;;;;5046994;28;20025;-76
2021/12/11 07:27:02;;;;;;;97.95;40.70;;;;;;;;;;5034252;28;20028;-75
2021/12/11 07:29:30;;;;;;;105.03;42.97;;;;;;;;;;5045539;28;20116;-74
2021/12/11 07:31:57;;;;;;;69.10;27.25;;;;;;;;;;5045044;28;20613;-75
2021/12/11 07:34:23;;;;;;;48.30;24.17;;;;;;;;;;5049496;28;20465;-77
2021/12/11 07:36:50;;;;;;;80.63;32.88;;;;;;;;;;5046676;28;20561;-76
2021/12/11 07:39:18;;;;;;;92.68;39.20;;;;;;;;;;5050806;28;20072;-75
2021/12/11 07:41:45;;;;;;;202.40;74.18;;;;;;;;;;5047234;28;20044;-76
2021/12/11 07:44:11;;;;;;;296.15;95.38;;;;;;;;;;5039886;28;20089;-75
2021/12/11 07:46:38;;;;;;;240.95;80.43;;;;;;;;;;5042815;28;20032;-76
2021/12/11 07:49:04;;;;;;;97.30;37.25;;;;;;;;;;5040334;28;20040;-75
2021/12/11 07:51:31;;;;;;;76.53;31.27;;;;;;;;;;5033964;28;20127;-75
2021/12/11 07:53:57;;;;;;;45.38;21.67;;;;;;;;;;5053551;28;20029;-76
2021/12/11 07:56:24;;;;;;;40.97;18.13;;;;;;;;;;5027261;28;20028;-76
2021/12/11 07:58:51;;;;;;;34.05;16.65;;;;;;;;;;5036152;28;20040;-76
2021/12/11 08:01:17;;;;;;;32.10;17.98;;;;;;;;;;5053657;28;20044;-75
2021/12/11 08:03:44;;;;;;;29.10;17.40;;;;;;;;;;5040715;28;20024;-75
2021/12/11 08:06:10;;;;;;;35.35;18.70;;;;;;;;;;5047400;28;20078;-75
2021/12/11 08:08:37;;;;;;;31.98;16.67;;;;;;;;;;5046054;28;20529;-75
2021/12/11 08:11:05;;;;;;;30.05;17.52;;;;;;;;;;5049065;28;20116;-74
2021/12/11 08:13:31;;;;;;;26.73;17.65;;;;;;;;;;5028896;28;20079;-74
2021/12/11 08:15:58;;;;;;;32.72;17.88;;;;;;;;;;5028860;28;20483;-74
2021/12/11 08:18:25;;;;;;;36.28;20.08;;;;;;;;;;5039024;28;20041;-74
2021/12/11 08:20:52;;;;;;;29.20;16.23;;;;;;;;;;5051919;28;20109;-74
2021/12/11 08:23:18;;;;;;;30.60;16.25;;;;;;;;;;5018025;28;20075;-74
2021/12/11 08:25:45;;;;;;;30.85;16.02;;;;;;;;;;5052152;28;20029;-74
2021/12/11 08:28:13;;;;;;;26.98;15.35;;;;;;;;;;5030416;28;20037;-74
2021/12/11 08:30:40;;;;;;;27.38;15.55;;;;;;;;;;5047073;28;20024;-73
2021/12/11 08:33:07;;;;;;;29.73;17.60;;;;;;;;;;5043737;28;20100;-74
2021/12/11 08:35:34;;;;;;;35.58;18.77;;;;;;;;;;5043294;28;20036;-74
2021/12/11 08:38:00;;;;;;;39.50;22.75;;;;;;;;;;5048439;28;20052;-76
2021/12/11 08:40:28;;;;;;;38.35;20.77;;;;;;;;;;5041292;28;20032;-74
2021/12/11 08:42:55;;;;;;;40.80;21.95;;;;;;;;;;5045227;28;20047;-74
2021/12/11 08:45:25;;;;;;;42.30;21.73;;;;;;;;;;5049724;28;20090;-75
2021/12/11 08:47:54;;;;;;;38.03;20.98;;;;;;;;;;5047811;28;20025;-75
2021/12/11 08:50:21;;;;;;;42.40;20.50;;;;;;;;;;5060149;28;20036;-76
2021/12/11 08:52:49;;;;;;;61.75;22.83;;;;;;;;;;5046828;28;20029;-76
2021/12/11 08:55:18;;;;;;;117.05;24.10;;;;;;;;;;5042222;28;20029;-77
2021/12/11 08:57:44;;;;;;;163.32;24.75;;;;;;;;;;5039732;28;20088;-76
2021/12/11 09:00:22;;;;;;;93.97;22.73;;;;;;;;;;5028538;28;20060;-77
2021/12/11 09:03:05;;;;;;;189.43;29.23;;;;;;;;;;5040396;28;20388;-77
2021/12/11 09:05:40;;;;;;;207.80;27.73;;;;;;;;;;5043650;28;20076;-77
2021/12/11 09:08:12;;;;;;;111.35;22.50;;;;;;;;;;5023390;28;20033;-76
2021/12/11 09:10:40;;;;;;;111.82;22.05;;;;;;;;;;5040120;28;20040;-77
2021/12/11 09:13:13;;;;;;;242.05;28.52;;;;;;;;;;5036511;28;20348;-79
2021/12/11 09:15:44;;;;;;;227.57;30.65;;;;;;;;;;5046876;28;20021;-78
2021/12/11 09:18:16;;;;;;;247.17;38.20;;;;;;;;;;5044146;28;20080;-79
2021/12/11 09:20:47;;;;;;;129.43;22.20;;;;;;;;;;5041823;28;20464;-80
2021/12/11 09:23:17;;;;;;;167.52;23.50;;;;;;;;;;5027173;28;20032;-78
2021/12/11 09:25:47;;;;;;;186.50;24.42;;;;;;;;;;5042803;28;20029;-78
2021/12/11 09:28:39;;;;;;;116.13;19.92;;;;;;;;;;5040092;28;20399;-80
2021/12/11 09:31:12;;;;;;;145.35;22.50;;;;;;;;;;5020141;28;20119;-79
2021/12/11 09:33:40;;;;;;;;;;;;;;;;;;5037784;28;20120;-79
2021/12/11 09:36:09;;;;;;;270.88;27.20;;;;;;;;;;5024713;28;19916;-78
2021/12/11 09:38:40;;;;;;;158.07;20.42;;;;;;;;;;5042592;28;20107;-79
2021/12/11 09:41:22;;;;;;;144.70;23.58;;;;;;;;;;5042056;28;20064;-79
2021/12/11 09:44:06;;;;;;;145.80;22.25;;;;;;;;;;5042695;28;20025;-78
2021/12/11 09:46:35;;;;;;;131.50;21.95;;;;;;;;;;5050308;28;20020;-78
2021/12/11 09:49:01;;;;;;;75.63;20.00;;;;;;;;;;5050579;28;20494;-78
2021/12/11 09:51:32;;;;;;;79.28;19.98;;;;;;;;;;5052333;28;20037;-80
2021/12/11 09:54:00;;;;;;;92.93;23.33;;;;;;;;;;5037778;28;20029;-80
2021/12/11 09:56:46;;;;;;;116.40;23.60;;;;;;;;;;5031445;28;20052;-79
2021/12/11 09:59:14;;;;;;;57.65;19.20;;;;;;;;;;5044010;28;20133;-78
2021/12/11 10:01:41;;;;;;;73.85;23.20;;;;;;;;;;5041784;28;20021;-78
2021/12/11 10:04:11;;;;;;;91.32;22.58;;;;;;;;;;5031423;28;20036;-79
2021/12/11 10:09:28;;;;;;;48.10;17.83;;;;;;;;;;5018662;28;20032;-77
2021/12/11 10:12:00;;;;;;;134.88;18.55;;;;;;;;;;5027333;28;20032;-76
2021/12/11 10:14:29;;;;;;;83.97;18.38;;;;;;;;;;5051945;28;20028;-77
2021/12/11 10:16:57;;;;;;;73.25;17.17;;;;;;;;;;5025736;28;20029;-76
2021/12/11 10:19:29;;;;;;;76.15;17.10;;;;;;;;;;5041980;28;20031;-77
2021/12/11 10:21:56;;;;;;;109.65;19.63;;;;;;;;;;5043571;28;20509;-76
2021/12/11 10:24:24;;;;;;;119.82;18.00;;;;;;;;;;5052965;28;20667;-76
2021/12/11 10:26:52;;;;;;;61.65;16.88;;;;;;;;;;5024243;28;20406;-76
2021/12/11 10:29:19;;;;;;;86.80;18.33;;;;;;;;;;5048448;28;20030;-76
2021/12/11 10:32:06;;;;;;;102.47;44.78;;;;;;;;;;5039004;28;20037;-78
2021/12/11 10:34:34;;;;;;;41.13;16.33;;;;;;;;;;5045365;28;20033;-75
2021/12/11 10:37:03;;;;;;;77.38;15.57;;;;;;;;;;5044394;28;20809;-76
2021/12/11 10:39:30;;;;;;;61.90;15.52;;;;;;;;;;5047391;28;20025;-77
2021/12/11 10:41:57;;;;;;;54.47;16.40;;;;;;;;;;5045947;28;20035;-77
2021/12/11 10:44:26;;;;;;;100.97;19.75;;;;;;;;;;5047272;28;20037;-76
2021/12/11 10:46:56;;;;;;;99.75;16.60;;;;;;;;;;5028480;28;20021;-77
2021/12/11 10:49:22;;;;;;;60.35;17.70;;;;;;;;;;5042351;28;20021;-76
2021/12/11 10:51:54;;;;;;;29.55;15.85;;;;;;;;;;5047607;28;20394;-77
2021/12/11 10:54:20;;;;;;;52.25;16.73;;;;;;;;;;5045070;28;20084;-76
2021/12/11 10:56:46;;;;;;;57.97;17.40;;;;;;;;;;5045351;28;20059;-77
2021/12/11 10:59:15;;;;;;;56.47;16.70;;;;;;;;;;5035839;28;20044;-77
2021/12/11 11:01:44;;;;;;;52.25;16.38;;;;;;;;;;5051322;28;20083;-77
2021/12/11 11:04:15;;;;;;;39.38;15.27;;;;;;;;;;5035506;28;20029;-76
2021/12/11 11:06:45;;;;;;;45.00;17.33;;;;;;;;;;5023145;28;20460;-76
2021/12/11 11:09:11;;;;;;;58.10;16.90;;;;;;;;;;5040528;28;20029;-76
2021/12/11 11:11:38;;;;;;;72.32;18.17;;;;;;;;;;5042422;28;20044;-77
2021/12/11 11:14:05;;;;;;;39.70;16.17;;;;;;;;;;5046100;28;20440;-77
2021/12/11 11:16:32;;;;;;;81.93;20.60;;;;;;;;;;5042963;28;20037;-78
2021/12/11 11:18:58;;;;;;;89.75;19.85;;;;;;;;;;5041796;28;20053;-76
2021/12/11 11:21:24;;;;;;;34.25;17.95;;;;;;;;;;5040231;28;20029;-77
2021/12/11 11:23:50;;;;;;;46.90;20.35;;;;;;;;;;5043539;28;20096;-78
2021/12/11 11:26:19;;;;;;;106.00;20.42;;;;;;;;;;5035140;28;20113;-78
2021/12/11 11:28:45;;;;;;;67.40;17.85;;;;;;;;;;5047069;28;20026;-77
2021/12/11 11:31:15;;;;;;;28.20;17.95;;;;;;;;;;5039560;28;20032;-77
2021/12/11 11:33:42;;;;;;;32.92;17.90;;;;;;;;;;5040650;28;20025;-78
2021/12/11 11:36:12;;;;;;;31.55;16.85;;;;;;;;;;5045790;28;20029;-78
2021/12/11 11:38:41;;;;;;;33.75;18.48;;;;;;;;;;5037424;28;20491;-77
2021/12/11 11:41:15;;;;;;;28.98;18.13;;;;;;;;;;5047196;28;20040;-77
2021/12/11 11:43:42;;;;;;;32.03;19.40;;;;;;;;;;5047036;28;20055;-77
2021/12/11 11:46:09;;;;;;;27.80;16.52;;;;;;;;;;5030284;28;20043;-77
2021/12/11 11:48:36;;;;;;;29.75;17.90;;;;;;;;;;5028422;28;20037;-78
2021/12/11 11:51:05;;;;;;;28.83;18.45;;;;;;;;;;5059594;28;20482;-76
2021/12/11 11:53:31;;;;;;;38.30;19.15;;;;;;;;;;5044048;28;20516;-77
2021/12/11 11:55:59;;;;;;;41.03;18.90;;;;;;;;;;5066483;28;20115;-77
2021/12/11 11:58:27;;;;;;;30.80;18.33;;;;;;;;;;5044448;28;20040;-77
2021/12/11 12:01:06;;;;;;;37.72;20.55;;;;;;;;;;5023424;28;20029;-77
2021/12/11 12:03:33;;;;;;;29.33;17.25;;;;;;;;;;5051262;28;20030;-77
2021/12/11 12:06:01;;;;;;;27.02;17.13;;;;;;;;;;5064096;28;20463;-77
2021/12/11 12:08:28;;;;;;;32.95;18.23;;;;;;;;;;5048541;28;20085;-77
2021/12/11 12:10:55;;;;;;;32.30;19.25;;;;;;;;;;5044589;28;20457;-77
2021/12/11 12:13:23;;;;;;;27.00;17.00;;;;;;;;;;5050500;28;20025;-77
2021/12/11 12:15:51;;;;;;;32.25;18.50;;;;;;;;;;5039991;28;20029;-77
2021/12/11 12:18:18;;;;;;;32.50;17.98;;;;;;;;;;5047621;28;20079;-77
2021/12/11 12:20:44;;;;;;;28.67;17.42;;;;;;;;;;5046059;28;20029;-78
2021/12/11 12:23:11;;;;;;;29.15;16.63;;;;;;;;;;5024060;28;20146;-78
2021/12/11 12:25:45;;;;;;;31.38;17.98;;;;;;;;;;5038753;28;20100;-79
2021/12/11 12:28:12;;;;;;;31.45;16.20;;;;;;;;;;5030702;28;20084;-78
2021/12/11 12:30:42;;;;;;;27.67;17.30;;;;;;;;;;5025849;28;20029;-78
2021/12/11 12:33:09;;;;;;;37.58;18.40;;;;;;;;;;5036380;28;20479;-78
2021/12/11 12:35:35;;;;;;;28.17;16.40;;;;;;;;;;5049797;28;20029;-78
2021/12/11 12:38:02;;;;;;;38.38;18.90;;;;;;;;;;5055945;28;20834;-77
2021/12/11 12:40:31;;;;;;;30.55;17.60;;;;;;;;;;5047427;28;20029;-77
2021/12/11 12:43:06;;;;;;;29.33;18.50;;;;;;;;;;5042190;28;20095;-77
2021/12/11 12:45:37;;;;;;;31.38;17.45;;;;;;;;;;5044577;28;20044;-77
2021/12/11 12:48:05;;;;;;;30.02;17.73;;;;;;;;;;5048673;28;20120;-78
2021/12/11 12:50:37;;;;;;;28.98;16.45;;;;;;;;;;5061077;28;20107;-77
2021/12/11 12:53:04;;;;;;;40.58;18.02;;;;;;;;;;5039573;28;20399;-78
2021/12/11 12:55:33;;;;;;;32.67;16.42;;;;;;;;;;5024810;28;20121;-77
2021/12/11 12:58:02;;;;;;;29.45;15.82;;;;;;;;;;5026884;28;20041;-77
2021/12/11 13:00:40;;;;;;;28.90;17.05;;;;;;;;;;5057586;28;20074;-78
2021/12/11 13:03:19;;;;;;;29.80;17.20;;;;;;;;;;5043993;28;20495;-78
2021/12/11 13:05:47;;;;;;;32.33;16.17;;;;;;;;;;5041599;28;20033;-77
2021/12/11 13:08:19;;;;;;;28.02;16.42;;;;;;;;;;5041992;28;20026;-77
2021/12/11 13:10:49;;;;;;;30.98;16.35;;;;;;;;;;5038800;28;20044;-77
2021/12/11 13:13:17;;;;;;;32.42;16.35;;;;;;;;;;5057768;28;20031;-77
2021/12/11 13:15:46;;;;;;;25.42;16.08;;;;;;;;;;5050621;28;20041;-78
2021/12/11 13:18:21;;;;;;;34.05;17.83;;;;;;;;;;5036968;28;20047;-77
2021/12/11 13:20:52;;;;;;;35.30;18.50;;;;;;;;;;5044048;28;20112;-75
2021/12/11 13:23:19;;;;;;;39.38;18.90;;;;;;;;;;5031714;28;20053;-77
2021/12/11 13:25:50;;;;;;;35.42;16.92;;;;;;;;;;5044153;28;20021;-77
2021/12/11 13:28:17;;;;;;;27.80;17.17;;;;;;;;;;5028364;28;20414;-77
2021/12/11 13:30:47;;;;;;;32.95;18.17;;;;;;;;;;5046962;28;20029;-77
2021/12/11 13:33:14;;;;;;;33.70;18.40;;;;;;;;;;5032064;28;20064;-77
2021/12/11 13:35:43;;;;;;;36.75;20.00;;;;;;;;;;5043187;28;20036;-77
2021/12/11 13:38:10;;;;;;;33.55;18.60;;;;;;;;;;5041600;28;20057;-77
2021/12/11 13:40:37;;;;;;;28.23;18.10;;;;;;;;;;5028237;28;20037;-77
2021/12/11 13:43:04;;;;;;;35.05;18.58;;;;;;;;;;5041806;28;20414;-78
2021/12/11 13:45:35;;;;;;;37.05;19.75;;;;;;;;;;5017020;28;20025;-78
2021/12/11 13:48:02;;;;;;;33.28;18.75;;;;;;;;;;5028053;28;20116;-77
2021/12/11 13:50:33;;;;;;;30.40;18.25;;;;;;;;;;5048010;28;20029;-78
2021/12/11 13:53:00;;;;;;;29.33;17.88;;;;;;;;;;5049595;28;20045;-77
2021/12/11 13:55:26;;;;;;;27.05;17.65;;;;;;;;;;5046536;28;20187;-78
2021/12/11 13:57:52;;;;;;;38.28;19.38;;;;;;;;;;5041658;28;20052;-78
2021/12/11 14:00:21;;;;;;;32.67;18.42;;;;;;;;;;5042652;28;20037;-78
2021/12/11 14:02:48;;;;;;;36.42;18.48;;;;;;;;;;5037099;28;20483;-78
2021/12/11 14:05:14;;;;;;;34.30;17.00;;;;;;;;;;5028963;28;20068;-78
2021/12/11 14:07:40;;;;;;;31.77;18.73;;;;;;;;;;5043427;28;20036;-78
2021/12/11 14:10:20;;;;;;;29.35;18.35;;;;;;;;;;5051631;28;20032;-78
2021/12/11 14:12:49;;;;;;;34.58;19.38;;;;;;;;;;5044055;28;20497;-78
2021/12/11 14:15:17;;;;;;;48.13;20.33;;;;;;;;;;5049660;28;20045;-78
2021/12/11 14:17:43;;;;;;;41.78;21.52;;;;;;;;;;5045380;28;20029;-78
2021/12/11 14:20:10;;;;;;;50.97;27.85;;;;;;;;;;5043049;28;20032;-78
2021/12/11 14:22:37;;;;;;;40.38;23.48;;;;;;;;;;5027032;28;20033;-78
2021/12/11 14:25:04;;;;;;;44.90;22.65;;;;;;;;;;5046421;28;20100;-78
2021/12/11 14:27:30;;;;;;;44.88;20.73;;;;;;;;;;5043541;28;20032;-77
2021/12/11 14:29:57;;;;;;;39.78;20.27;;;;;;;;;;5047527;28;20033;-77
2021/12/11 14:32:24;;;;;;;35.80;19.80;;;;;;;;;;5040931;28;20406;-77
2021/12/11 14:34:51;;;;;;;37.78;20.02;;;;;;;;;;5036224;28;20048;-77
2021/12/11 14:37:17;;;;;;;25.48;17.80;;;;;;;;;;5043228;28;20044;-77
2021/12/11 14:39:47;;;;;;;37.17;19.83;;;;;;;;;;5032705;28;20068;-76
2021/12/11 14:42:32;;;;;;;38.47;20.58;;;;;;;;;;5033043;28;20109;-77
2021/12/11 14:45:01;;;;;;;48.50;20.80;;;;;;;;;;5038226;28;20029;-77
2021/12/11 14:47:27;;;;;;;36.22;20.00;;;;;;;;;;5024936;28;20136;-77